TimeAKDT,TemperatureF,Dew PointF,Humidity,Sea Level PressureIn,VisibilityMPH,Wind Direction,Wind SpeedMPH,Gust SpeedMPH,PrecipitationIn,Events,Conditions,WindDirDegrees,DateUTC
12:44 AM,42.8,41.0,93,30.13,10.0,Calm,Calm,-,N/A,,Overcast,0,2013-05-24 08:44:00
12:53 AM,43.0,41.0,93,30.13,10.0,Calm,Calm,-,N/A,,Overcast,0,2013-05-24 08:53:00
1:05 AM,42.8,41.0,93,30.13,10.0,Calm,Calm,-,N/A,,Overcast,0,2013-05-24 09:05:00
1:53 AM,43.0,41.0,93,30.13,10.0,East,4.6,-,N/A,,Overcast,90,2013-05-24 09:53:00
2:34 AM,42.8,41.0,93,30.12,2.5,East,3.5,-,N/A,,Overcast,80,2013-05-24 10:34:00
2:44 AM,42.8,41.0,93,30.12,1.2,Calm,Calm,-,N/A,,Overcast,0,2013-05-24 10:44:00
2:53 AM,43.0,41.0,93,30.12,1.0,East,3.5,-,N/A,,Overcast,90,2013-05-24 10:53:00
3:18 AM,42.8,41.0,93,30.12,0.8,Calm,Calm,-,N/A,,Mist,0,2013-05-24 11:18:00
3:53 AM,43.0,41.0,93,30.12,0.5,Calm,Calm,-,N/A,Fog,Fog,0,2013-05-24 11:53:00
4:11 AM,42.8,41.0,93,30.11,1.0,Calm,Calm,-,N/A,,Overcast,0,2013-05-24 12:11:00
4:53 AM,43.0,41.0,93,30.10,1.0,Calm,Calm,-,N/A,,Overcast,0,2013-05-24 12:53:00
5:53 AM,42.1,41.0,96,30.10,1.0,Calm,Calm,-,N/A,,Overcast,0,2013-05-24 13:53:00
6:18 AM,42.8,41.0,93,30.09,0.5,Calm,Calm,-,N/A,Fog,Fog,0,2013-05-24 14:18:00
6:53 AM,43.0,41.0,93,30.09,0.5,Calm,Calm,-,N/A,Fog,Fog,0,2013-05-24 14:53:00
7:53 AM,43.0,41.0,93,30.09,0.8,Calm,Calm,-,N/A,,Overcast,0,2013-05-24 15:53:00
8:53 AM,43.0,41.0,93,30.09,0.2,Calm,Calm,-,N/A,Fog,Fog,0,2013-05-24 16:53:00
9:26 AM,44.6,41.0,87,30.09,0.5,ENE,3.5,-,N/A,Fog,Fog,60,2013-05-24 17:26:00
9:50 AM,44.6,42.8,93,30.09,6.0,Calm,Calm,-,N/A,,Scattered Clouds,0,2013-05-24 17:50:00
9:53 AM,44.1,42.1,93,30.09,6.0,Calm,Calm,-,N/A,,Scattered Clouds,0,2013-05-24 17:53:00
10:53 AM,44.1,41.0,89,30.08,7.0,ENE,5.8,-,N/A,,Scattered Clouds,60,2013-05-24 18:53:00
11:53 AM,46.0,42.1,86,30.07,7.0,ENE,5.8,-,N/A,,Scattered Clouds,60,2013-05-24 19:53:00
12:53 PM,50.0,43.0,77,30.07,10.0,ENE,4.6,-,N/A,,Partly Cloudy,60,2013-05-24 20:53:00
1:53 PM,51.1,44.1,77,30.06,10.0,NE,4.6,-,N/A,,Partly Cloudy,50,2013-05-24 21:53:00
2:53 PM,52.0,41.0,66,30.06,10.0,East,4.6,-,N/A,,Scattered Clouds,80,2013-05-24 22:53:00
3:53 PM,52.0,41.0,66,30.06,10.0,NE,5.8,-,N/A,,Scattered Clouds,50,2013-05-24 23:53:00
4:53 PM,52.0,41.0,66,30.05,10.0,NE,5.8,-,N/A,,Scattered Clouds,40,2013-05-25 00:53:00
5:53 PM,54.0,39.9,59,30.05,10.0,NE,4.6,-,N/A,,Scattered Clouds,50,2013-05-25 01:53:00
6:53 PM,53.1,39.9,61,30.04,10.0,NNE,3.5,-,N/A,,Scattered Clouds,30,2013-05-25 02:53:00
7:53 PM,54.0,39.0,57,30.03,10.0,NNE,4.6,-,N/A,,Scattered Clouds,30,2013-05-25 03:53:00
8:53 PM,53.1,43.0,69,30.02,10.0,NNE,5.8,-,N/A,,Scattered Clouds,30,2013-05-25 04:53:00
9:53 PM,53.1,43.0,69,30.02,10.0,Calm,Calm,-,N/A,,Scattered Clouds,0,2013-05-25 05:53:00
10:53 PM,52.0,39.9,63,30.01,10.0,Calm,Calm,-,N/A,,Scattered Clouds,0,2013-05-25 06:53:00
11:53 PM,51.1,41.0,68,30.01,10.0,Calm,Calm,-,N/A,,Scattered Clouds,0,2013-05-25 07:53:00